HESH Airport Information

Runway Information
Runway 04L Length 10108 ft width 148 ft
Elevation 134 ft Threshold 0 ft Heading 43
Runway 22R Length 10108 ft Width 148 ft
Elevation 119 ft Threshold 0 ft Heading 223
Runway 04R Length 10108 ft width 148 ft
Elevation 114 ft Threshold 0 ft Heading 43
Runway 22L Length 10108 ft Width 148 ft
Elevation 117 ft Threshold 0 ft Heading 223
Airport Frequencies
Type APP Name RADAR Frequency 121.1 MHZ
Type GND Name GND Frequency 121.9 MHZ
Type RDO Name RDO Frequency 317.5 MHZ
Type TWR Name TWR Frequency 118.9 MHZ
Airport Navaids
Type VOR-DME Name Sharm El Sheikh Frequency 114200 KHZ
Type NDB Name Sharm El Sheikh Frequency 335 KHZ
Airport Weather Information & NOTAM
ADDS - METARS form results

(0628 UTC 16 September 2019)
Data provider http://aviationweather.gov/metar/data/
 
Forecast for: HESH (SHARM EL SHEIKHI, EG)
Text: TAF HESH 160500Z 1606/1712 04012KT CAVOK
Forecast period: 0600 UTC 16 September 2019 to 1200 UTC 17 September 2019
Forecast type: FROM: standard forecast or significant change
Winds: from the NE (40 degrees) at 14 MPH (12 knots; 6.2 m/s)
Visibility: 6 or more miles 10+ km)
Ceiling: unknown
Clouds: missing
Weather: NSW  (no significant weather)